createdAt,value
2017-02-23T00:00:17.957Z,10.42
2017-02-23T00:00:39.891Z,10.41
2017-02-23T00:01:11.283Z,10.41
2017-02-23T00:01:33.073Z,10.40
2017-02-23T00:02:04.374Z,10.40
2017-02-23T00:02:26.291Z,10.42
2017-02-23T00:02:52.855Z,10.42
2017-02-23T00:03:14.650Z,10.40
2017-02-23T00:04:21.999Z,10.40
2017-02-23T00:04:43.808Z,10.40
2017-02-23T00:05:05.606Z,10.41
2017-02-23T00:05:36.991Z,10.41
2017-02-23T00:05:58.809Z,10.40
2017-02-23T00:06:25.370Z,10.41
2017-02-23T00:06:47.185Z,10.41
2017-02-23T00:07:13.824Z,10.41
2017-02-23T00:07:35.623Z,10.40
2017-02-23T00:08:02.185Z,10.40
2017-02-23T00:08:24.091Z,10.40
2017-02-23T00:08:55.387Z,10.40
2017-02-23T00:09:17.197Z,10.43
2017-02-23T00:09:48.597Z,10.43
2017-02-23T00:10:10.399Z,10.43
2017-02-23T00:10:32.213Z,10.45
2017-02-23T00:10:59.794Z,10.45
2017-02-23T00:11:21.601Z,10.41
2017-02-23T00:11:52.914Z,10.39
2017-02-23T00:12:14.850Z,10.38
2017-02-23T00:12:36.712Z,10.37
2017-02-23T00:13:03.289Z,10.26
2017-02-23T00:13:25.213Z,10.25
2017-02-23T00:13:56.538Z,10.26
2017-02-23T00:14:18.360Z,10.23
2017-02-23T00:14:40.288Z,10.24
2017-02-23T00:15:06.827Z,10.21
2017-02-23T00:15:28.635Z,10.20
2017-02-23T00:16:04.674Z,10.21
2017-02-23T00:16:27.285Z,10.21
2017-02-23T00:16:49.112Z,10.20
2017-02-23T00:17:10.937Z,10.20
2017-02-23T00:17:37.631Z,10.21
2017-02-23T00:17:59.459Z,10.22
2017-02-23T00:18:35.510Z,10.18
2017-02-23T00:19:02.846Z,10.18
2017-02-23T00:19:24.663Z,10.15
2017-02-23T00:19:46.491Z,10.13
2017-02-23T00:20:13.177Z,10.11
2017-02-23T00:20:35.080Z,10.10
2017-02-23T00:20:56.984Z,10.08
2017-02-23T00:21:23.635Z,10.10
2017-02-23T00:21:45.457Z,10.10
2017-02-23T00:22:07.361Z,10.10
2017-02-23T00:22:33.923Z,10.10
2017-02-23T00:22:55.761Z,10.07
2017-02-23T00:23:27.162Z,10.04
2017-02-23T00:23:49.022Z,10.03
2017-02-23T00:24:20.331Z,10.02
2017-02-23T00:24:42.246Z,10.05
2017-02-23T00:25:08.799Z,10.03
2017-02-23T00:25:30.628Z,10.01
2017-02-23T00:25:57.180Z,10.01
2017-02-23T00:26:18.977Z,10.01
2017-02-23T00:26:45.518Z,10.00
2017-02-23T00:27:07.308Z,9.99
2017-02-23T00:27:29.115Z,10.00
2017-02-23T00:27:55.655Z,10.00
2017-02-23T00:28:17.462Z,9.99
2017-02-23T00:28:39.265Z,9.98
2017-02-23T00:29:01.060Z,9.99
2017-02-23T00:29:22.869Z,9.93
2017-02-23T00:29:54.144Z,9.95
2017-02-23T00:30:15.934Z,9.92
2017-02-23T00:30:42.486Z,9.96
2017-02-23T00:31:04.276Z,10.00
2017-02-23T00:31:26.074Z,10.01
2017-02-23T00:31:52.614Z,9.97
2017-02-23T00:32:14.409Z,9.96
2017-02-23T00:32:36.203Z,9.95
2017-02-23T00:32:58.008Z,9.95
2017-02-23T00:33:19.821Z,9.93
2017-02-23T00:33:41.619Z,9.92
2017-02-23T00:34:08.159Z,9.92
2017-02-23T00:34:29.975Z,9.94
2017-02-23T00:34:51.768Z,9.95
2017-02-23T00:35:18.320Z,9.95
2017-02-23T00:35:40.112Z,9.96
2017-02-23T00:36:01.898Z,9.97
2017-02-23T00:36:28.443Z,9.94
2017-02-23T00:36:50.240Z,9.96
2017-02-23T00:37:12.036Z,9.97
2017-02-23T00:37:33.834Z,9.96
2017-02-23T00:37:55.631Z,9.94
2017-02-23T00:38:17.427Z,9.95
2017-02-23T00:38:39.222Z,9.97
2017-02-23T00:39:01.034Z,9.98
2017-02-23T00:39:22.841Z,9.97
2017-02-23T00:39:44.756Z,9.95
2017-02-23T00:40:06.555Z,9.95
2017-02-23T00:40:28.338Z,9.97
2017-02-23T00:40:50.135Z,9.94
2017-02-23T00:41:11.935Z,9.93
2017-02-23T00:41:33.721Z,9.97
2017-02-23T00:41:55.521Z,10.00
2017-02-23T00:42:17.313Z,9.99
2017-02-23T00:42:39.102Z,9.98
2017-02-23T00:43:00.898Z,9.98
2017-02-23T00:43:22.697Z,9.97
2017-02-23T00:43:44.497Z,9.97
2017-02-23T00:44:06.293Z,9.97
2017-02-23T00:44:28.104Z,9.96
2017-02-23T00:44:49.916Z,9.96
2017-02-23T00:45:16.481Z,9.99
2017-02-23T00:45:38.277Z,10.02
2017-02-23T00:46:00.076Z,9.98
2017-02-23T00:46:26.649Z,10.01
2017-02-23T00:46:48.435Z,9.98
2017-02-23T00:47:10.222Z,10.01
2017-02-23T00:47:36.762Z,9.99
2017-02-23T00:47:58.561Z,9.99
2017-02-23T00:48:20.362Z,9.99
2017-02-23T00:48:42.162Z,10.03
2017-02-23T00:49:03.959Z,10.02
2017-02-23T00:49:25.753Z,10.03
2017-02-23T00:49:47.558Z,10.03
2017-02-23T00:50:09.345Z,10.05
2017-02-23T00:50:31.167Z,10.02
2017-02-23T00:50:52.959Z,10.03
2017-02-23T00:51:14.756Z,10.05
2017-02-23T00:51:36.540Z,10.07
2017-02-23T00:51:58.344Z,10.09
2017-02-23T00:52:20.139Z,10.11
2017-02-23T00:52:41.933Z,10.11
2017-02-23T00:53:08.489Z,10.14
2017-02-23T00:53:30.288Z,10.13
2017-02-23T00:53:53.095Z,10.11
2017-02-23T00:54:14.908Z,10.11
2017-02-23T00:54:36.697Z,10.09
2017-02-23T00:54:58.485Z,10.08
2017-02-23T00:55:22.891Z,10.07
2017-02-23T00:55:54.187Z,10.07
2017-02-23T00:56:15.999Z,10.07
2017-02-23T00:56:37.797Z,10.11
2017-02-23T00:56:59.595Z,10.10
2017-02-23T00:57:21.583Z,10.09
2017-02-23T00:57:43.385Z,10.07
2017-02-23T00:58:05.194Z,10.09
2017-02-23T00:58:26.981Z,10.10
2017-02-23T00:58:48.776Z,10.09
2017-02-23T01:00:30.495Z,10.11
2017-02-23T01:00:52.221Z,10.13
2017-02-23T01:01:13.910Z,10.11
2017-02-23T01:01:35.609Z,10.12
2017-02-23T01:01:57.298Z,10.12
2017-02-23T01:02:23.781Z,10.13
2017-02-23T01:02:45.470Z,10.12
2017-02-23T01:03:11.943Z,10.12
2017-02-23T01:03:33.638Z,10.12
2017-02-23T01:03:55.334Z,10.11
2017-02-23T01:04:21.926Z,10.14
2017-02-23T01:04:43.525Z,10.13
2017-02-23T01:05:05.234Z,10.11
2017-02-23T01:05:31.702Z,10.11
2017-02-23T01:05:53.426Z,10.13
2017-02-23T01:06:19.903Z,10.12
2017-02-23T01:06:41.593Z,10.11
2017-02-23T01:07:03.297Z,10.13
2017-02-23T01:07:29.771Z,10.13
2017-02-23T01:07:51.498Z,10.15
2017-02-23T01:08:13.177Z,10.16
2017-02-23T01:08:34.892Z,10.14
2017-02-23T01:08:56.679Z,10.15
2017-02-23T01:09:27.936Z,10.13
2017-02-23T01:09:49.637Z,10.15
2017-02-23T01:10:11.346Z,10.17
2017-02-23T01:10:42.610Z,10.18
2017-02-23T01:11:04.342Z,10.20
2017-02-23T01:11:26.040Z,10.20
2017-02-23T01:11:47.751Z,10.20
2017-02-23T01:12:09.451Z,10.20
2017-02-23T01:12:31.145Z,10.19
2017-02-23T01:12:52.844Z,10.20
2017-02-23T01:13:14.544Z,10.19
2017-02-23T01:13:36.250Z,10.20
2017-02-23T01:13:57.954Z,10.18
2017-02-23T01:14:19.645Z,10.19
2017-02-23T01:14:50.902Z,10.19
2017-02-23T01:15:12.696Z,10.20
2017-02-23T01:15:34.395Z,10.19
2017-02-23T01:16:00.882Z,10.20
2017-02-23T01:16:22.603Z,10.20
2017-02-23T01:16:44.304Z,10.22
2017-02-23T01:17:10.773Z,10.20
2017-02-23T01:17:32.559Z,10.20
2017-02-23T01:17:54.269Z,10.20
2017-02-23T01:18:20.741Z,10.18
2017-02-23T01:18:42.447Z,10.19
2017-02-23T01:19:04.146Z,10.20
2017-02-23T01:19:30.628Z,10.21
2017-02-23T01:19:52.328Z,10.19
2017-02-23T01:20:14.030Z,10.19
2017-02-23T01:20:40.512Z,10.20
2017-02-23T01:21:02.300Z,10.21
2017-02-23T01:21:24.005Z,10.19
2017-02-23T01:21:45.708Z,10.22
2017-02-23T01:22:07.419Z,10.24
2017-02-23T01:22:29.148Z,10.20
2017-02-23T01:22:50.850Z,10.18
2017-02-23T01:23:12.546Z,10.18
2017-02-23T01:23:34.255Z,10.20
2017-02-23T01:24:00.731Z,10.17
2017-02-23T01:24:22.428Z,10.18
2017-02-23T01:24:49.003Z,10.19
2017-02-23T01:25:10.696Z,10.19
2017-02-23T01:25:32.387Z,10.19
2017-02-23T01:25:58.859Z,10.20
2017-02-23T01:26:20.555Z,10.18
2017-02-23T01:26:42.355Z,10.19
2017-02-23T01:27:08.822Z,10.19
2017-02-23T01:27:30.535Z,10.20
2017-02-23T01:27:52.230Z,10.19
2017-02-23T01:28:13.931Z,10.22
2017-02-23T01:28:35.632Z,10.22
2017-02-23T01:28:57.328Z,10.20
2017-02-23T01:29:23.893Z,10.21
2017-02-23T01:29:45.584Z,10.21
2017-02-23T01:30:07.278Z,10.22
2017-02-23T01:30:28.981Z,10.20
2017-02-23T01:30:50.693Z,10.20
2017-02-23T01:31:12.411Z,10.22
2017-02-23T01:31:43.663Z,10.20
2017-02-23T01:32:05.352Z,10.21
2017-02-23T01:32:31.847Z,10.20
2017-02-23T01:32:56.284Z,10.18
2017-02-23T01:33:22.763Z,10.20
2017-02-23T01:33:44.459Z,10.21
2017-02-23T01:34:06.162Z,10.21
2017-02-23T01:34:27.865Z,10.21
2017-02-23T01:34:49.569Z,10.21
2017-02-23T01:35:16.046Z,10.19
2017-02-23T01:35:37.743Z,10.19
2017-02-23T01:36:09.001Z,10.21
2017-02-23T01:36:30.699Z,10.23
2017-02-23T01:37:37.995Z,10.20
2017-02-23T01:37:59.698Z,10.19
2017-02-23T01:38:30.958Z,10.21
2017-02-23T01:38:52.657Z,10.22
2017-02-23T01:39:14.367Z,10.23
2017-02-23T01:39:40.845Z,10.22
2017-02-23T01:40:02.536Z,10.23
2017-02-23T01:40:24.240Z,10.22
2017-02-23T01:41:00.265Z,10.23
2017-02-23T01:41:22.498Z,10.23
2017-02-23T01:41:44.208Z,10.22
2017-02-23T01:42:10.699Z,10.25
2017-02-23T01:42:32.421Z,10.24
2017-02-23T01:42:54.134Z,10.25
2017-02-23T01:43:20.626Z,10.24
2017-02-23T01:43:42.330Z,10.23
2017-02-23T01:44:08.813Z,10.24
2017-02-23T01:44:30.508Z,10.25
2017-02-23T01:45:06.536Z,10.26
2017-02-23T01:45:33.567Z,10.24
2017-02-23T01:47:24.602Z,10.22
2017-02-23T01:47:46.372Z,10.23
2017-02-23T01:48:48.977Z,10.25
2017-02-23T01:49:10.780Z,10.24
2017-02-23T01:49:32.585Z,10.23
2017-02-23T01:49:54.385Z,10.22
2017-02-23T01:50:16.180Z,10.22
2017-02-23T01:50:42.722Z,10.23
2017-02-23T01:51:04.524Z,10.23
2017-02-23T01:51:35.832Z,10.22
2017-02-23T01:51:57.658Z,10.21
2017-02-23T01:52:24.209Z,10.24
2017-02-23T01:52:46.008Z,10.24
2017-02-23T01:53:12.567Z,10.24
2017-02-23T01:55:18.350Z,10.23
2017-02-23T01:55:44.828Z,10.25
2017-02-23T01:56:06.539Z,10.25
2017-02-23T01:56:33.010Z,10.25
2017-02-23T01:56:57.685Z,10.25
2017-02-23T01:57:19.402Z,10.25
2017-02-23T01:57:41.093Z,10.26
2017-02-23T01:58:07.597Z,10.26
2017-02-23T01:58:29.304Z,10.26
2017-02-23T01:58:51.001Z,10.26
2017-02-23T01:59:17.481Z,10.26
2017-02-23T01:59:39.188Z,10.25
2017-02-23T02:00:01.014Z,10.25
2017-02-23T02:00:22.736Z,10.23
2017-02-23T02:00:44.441Z,10.25
2017-02-23T02:01:15.691Z,10.25
2017-02-23T02:01:37.395Z,10.25
2017-02-23T02:02:08.645Z,10.25
2017-02-23T02:02:30.341Z,10.24
2017-02-23T02:03:01.593Z,10.26
2017-02-23T02:03:23.287Z,10.25
2017-02-23T02:03:54.604Z,10.28
2017-02-23T02:04:16.311Z,10.27
2017-02-23T02:04:47.606Z,10.26
2017-02-23T02:05:09.313Z,10.24
2017-02-23T02:05:40.572Z,10.24
2017-02-23T02:06:02.276Z,10.25
2017-02-23T02:06:38.297Z,10.27
2017-02-23T02:07:05.313Z,10.28
2017-02-23T02:07:27.008Z,10.29
2017-02-23T02:07:58.255Z,10.28
2017-02-23T02:08:19.970Z,10.26
2017-02-23T02:08:41.658Z,10.29
2017-02-23T02:09:03.367Z,10.28
2017-02-23T02:09:25.063Z,10.27
2017-02-23T02:09:46.759Z,10.25
2017-02-23T02:10:49.383Z,10.26
2017-02-23T02:11:15.875Z,10.26
2017-02-23T02:11:37.583Z,10.29
2017-02-23T02:11:59.302Z,10.29
2017-02-23T02:12:20.985Z,10.29
2017-02-23T02:12:42.684Z,10.28
2017-02-23T02:13:04.399Z,10.28
2017-02-23T02:13:30.892Z,10.27
2017-02-23T02:13:52.593Z,10.27
2017-02-23T02:14:14.291Z,10.27
2017-02-23T02:14:35.999Z,10.27
2017-02-23T02:14:57.719Z,10.24
2017-02-23T02:15:19.435Z,10.26
2017-02-23T02:15:41.151Z,10.26
2017-02-23T02:16:02.848Z,10.27
2017-02-23T02:16:24.563Z,10.28
2017-02-23T02:16:55.823Z,10.27
2017-02-23T02:17:17.523Z,10.27
2017-02-23T02:17:48.772Z,10.26
2017-02-23T02:18:10.460Z,10.27
2017-02-23T02:19:12.975Z,10.28
2017-02-23T02:19:34.671Z,10.27
2017-02-23T02:20:05.932Z,10.25
2017-02-23T02:20:27.625Z,10.26
2017-02-23T02:21:39.679Z,10.28
2017-02-23T02:22:01.391Z,10.27
2017-02-23T02:22:32.652Z,10.27
2017-02-23T02:22:54.339Z,10.29
2017-02-23T02:23:16.054Z,10.27
2017-02-23T02:23:37.763Z,10.26
2017-02-23T02:23:59.484Z,10.27
2017-02-23T02:24:21.180Z,10.27
2017-02-23T02:24:52.448Z,10.28
2017-02-23T02:25:14.169Z,10.27
2017-02-23T02:25:35.881Z,10.28
2017-02-23T02:25:57.590Z,10.31
2017-02-23T02:26:19.298Z,10.31
2017-02-23T02:27:26.573Z,10.29
2017-02-23T02:27:48.359Z,10.28
2017-02-23T02:28:10.053Z,10.26
2017-02-23T02:28:41.300Z,10.27
2017-02-23T02:29:03.006Z,10.27
2017-02-23T02:29:24.705Z,10.27
2017-02-23T02:29:46.406Z,10.28
2017-02-23T02:30:08.103Z,10.29
2017-02-23T02:30:29.825Z,10.29
2017-02-23T02:30:51.536Z,10.27
2017-02-23T02:31:15.960Z,10.26
2017-02-23T02:31:42.476Z,10.26
2017-02-23T02:32:04.146Z,10.26
2017-02-23T02:32:30.618Z,10.27
2017-02-23T02:32:52.316Z,10.24
2017-02-23T02:33:14.032Z,10.26
2017-02-23T02:33:35.748Z,10.26
2017-02-23T02:33:57.448Z,10.24
2017-02-23T02:34:19.268Z,10.25
2017-02-23T02:34:50.517Z,10.26
2017-02-23T02:35:12.221Z,10.25
2017-02-23T02:35:38.714Z,10.26
2017-02-23T02:36:00.447Z,10.25
2017-02-23T02:36:22.163Z,10.26
2017-02-23T02:36:58.199Z,10.25
2017-02-23T02:37:20.424Z,10.26
2017-02-23T02:37:42.119Z,10.26
2017-02-23T02:38:03.824Z,10.28
2017-02-23T02:38:25.557Z,10.24
2017-02-23T02:38:47.253Z,10.24
2017-02-23T02:39:23.289Z,10.24
2017-02-23T02:39:50.321Z,10.24
2017-02-23T02:40:12.016Z,10.24
2017-02-23T02:41:19.304Z,10.23
2017-02-23T02:41:41.008Z,10.22
2017-02-23T02:42:07.495Z,10.21
2017-02-23T02:42:29.194Z,10.21
2017-02-23T02:42:50.897Z,10.20
2017-02-23T02:43:17.380Z,10.23
2017-02-23T02:43:39.104Z,10.24
2017-02-23T02:44:00.806Z,10.23
2017-02-23T02:44:32.158Z,10.21
2017-02-23T02:44:53.863Z,10.21
2017-02-23T02:45:25.110Z,10.19
2017-02-23T02:45:46.817Z,10.18
2017-02-23T02:46:22.850Z,10.19
2017-02-23T02:46:49.886Z,10.19
2017-02-23T02:47:11.607Z,10.18
2017-02-23T02:47:33.336Z,10.16
2017-02-23T02:48:04.585Z,10.17
2017-02-23T02:48:26.292Z,10.18
2017-02-23T02:48:53.149Z,10.18
2017-02-23T02:49:14.964Z,10.18
2017-02-23T02:49:36.798Z,10.18
2017-02-23T02:50:03.286Z,10.19
2017-02-23T02:50:25.105Z,10.18
2017-02-23T02:50:56.373Z,10.18
2017-02-23T02:51:18.110Z,10.18
2017-02-23T02:51:39.905Z,10.16
2017-02-23T02:52:11.164Z,10.15
2017-02-23T02:52:32.885Z,10.15
2017-02-23T02:52:54.741Z,10.15
2017-02-23T02:53:21.233Z,10.16
2017-02-23T02:53:42.935Z,10.14
2017-02-23T02:54:14.276Z,10.17
2017-02-23T02:54:35.995Z,10.19
2017-02-23T02:55:07.259Z,10.18
2017-02-23T02:55:29.083Z,10.16
2017-02-23T02:56:00.388Z,10.15
2017-02-23T02:56:22.097Z,10.16
2017-02-23T02:57:24.731Z,10.16
2017-02-23T02:57:46.448Z,10.19
2017-02-23T02:58:22.479Z,10.15
2017-02-23T02:58:49.606Z,10.14
2017-02-23T02:59:11.307Z,10.17
2017-02-23T02:59:33.029Z,10.15
2017-02-23T02:59:54.741Z,10.17
2017-02-23T03:00:20.412Z,10.16
2017-02-23T03:01:22.917Z,10.12
2017-02-23T03:01:44.718Z,10.16
2017-02-23T03:02:11.211Z,10.12
2017-02-23T03:02:32.917Z,10.13
2017-02-23T03:02:59.477Z,10.11
2017-02-23T03:03:23.941Z,10.11
2017-02-23T03:03:45.669Z,10.11
2017-02-23T03:04:07.391Z,10.11
2017-02-23T03:04:29.202Z,10.14
2017-02-23T03:04:55.688Z,10.13
2017-02-23T03:05:17.397Z,10.14
2017-02-23T03:05:48.768Z,10.15
2017-02-23T03:06:10.492Z,10.13
2017-02-23T03:06:46.514Z,10.12
2017-02-23T03:07:13.626Z,10.12
2017-02-23T03:07:35.323Z,10.13
2017-02-23T03:08:01.805Z,10.10
2017-02-23T03:08:23.526Z,10.10
2017-02-23T03:08:59.561Z,10.14
2017-02-23T03:09:21.912Z,10.16
2017-02-23T03:09:43.672Z,10.15
2017-02-23T03:10:10.242Z,10.12
2017-02-23T03:10:31.936Z,10.14
2017-02-23T03:10:53.640Z,10.10
2017-02-23T03:11:20.124Z,10.12
2017-02-23T03:11:41.932Z,10.10
2017-02-23T03:12:13.341Z,10.07
2017-02-23T03:12:35.020Z,10.10
2017-02-23T03:13:06.367Z,10.09
2017-02-23T03:13:28.210Z,10.10
2017-02-23T03:13:59.477Z,10.10
2017-02-23T03:15:11.534Z,10.12
2017-02-23T03:15:33.239Z,10.10
2017-02-23T03:15:54.950Z,10.09
2017-02-23T03:16:26.289Z,10.09
2017-02-23T03:16:47.985Z,10.12
2017-02-23T03:17:55.361Z,10.09
2017-02-23T03:18:17.128Z,10.10
2017-02-23T03:18:38.877Z,10.10
2017-02-23T03:19:10.204Z,10.08
2017-02-23T03:19:31.923Z,10.10
2017-02-23T03:20:39.301Z,10.12
2017-02-23T03:21:00.999Z,10.13
2017-02-23T03:21:22.697Z,10.13
2017-02-23T03:21:54.038Z,10.11
2017-02-23T03:22:15.734Z,10.11
2017-02-23T03:22:46.989Z,10.08
2017-02-23T03:23:08.799Z,10.07
2017-02-23T03:23:35.282Z,10.06
2017-02-23T03:23:57.014Z,10.09
2017-02-23T03:24:18.819Z,10.06
2017-02-23T03:24:45.302Z,10.07
2017-02-23T03:25:07.014Z,10.09
2017-02-23T03:25:38.345Z,10.11
2017-02-23T03:26:00.038Z,10.10
2017-02-23T03:26:29.437Z,10.06
2017-02-23T03:26:51.268Z,10.07
2017-02-23T03:27:12.960Z,10.08
2017-02-23T03:27:39.440Z,10.07
2017-02-23T03:28:01.198Z,10.06
2017-02-23T03:29:13.345Z,10.06
2017-02-23T03:29:35.074Z,10.06
2017-02-23T03:30:06.336Z,10.08
2017-02-23T03:30:28.153Z,10.06
2017-02-23T03:31:35.455Z,10.07
2017-02-23T03:31:57.239Z,10.05
2017-02-23T03:32:23.725Z,10.05
2017-02-23T03:32:45.436Z,10.05
2017-02-23T03:33:07.241Z,10.06
2017-02-23T03:33:33.716Z,10.06
2017-02-23T03:33:55.434Z,10.07
2017-02-23T03:34:26.774Z,10.03
2017-02-23T03:34:48.468Z,10.04
2017-02-23T03:35:19.726Z,10.03
2017-02-23T03:35:41.510Z,10.06
2017-02-23T03:36:03.225Z,10.05
2017-02-23T03:36:24.924Z,10.05
2017-02-23T03:36:46.646Z,10.03
2017-02-23T03:37:08.438Z,10.02
2017-02-23T03:37:34.935Z,10.02
2017-02-23T03:37:56.630Z,10.03
2017-02-23T03:38:23.184Z,10.02
2017-02-23T03:38:44.893Z,10.02
2017-02-23T03:39:06.601Z,10.04
2017-02-23T03:39:42.637Z,10.01
2017-02-23T03:40:05.128Z,10.02
2017-02-23T03:40:26.839Z,10.03
2017-02-23T03:41:29.455Z,10.03
2017-02-23T03:41:51.177Z,10.04
2017-02-23T03:42:27.208Z,10.05
2017-02-23T03:42:54.346Z,10.03
2017-02-23T03:43:16.045Z,10.03
2017-02-23T03:43:47.302Z,10.01
2017-02-23T03:44:09.112Z,9.99
2017-02-23T03:45:11.615Z,10.01
2017-02-23T03:45:33.403Z,9.98
2017-02-23T03:46:04.657Z,10.00
2017-02-23T03:46:26.365Z,10.00
2017-02-23T03:46:48.167Z,10.00
2017-02-23T03:47:14.654Z,9.98
2017-02-23T03:47:36.365Z,9.97
2017-02-23T03:47:58.176Z,9.97
2017-02-23T03:48:29.424Z,10.00
2017-02-23T03:48:51.134Z,9.98
2017-02-23T03:49:22.470Z,9.99
2017-02-23T03:49:44.192Z,9.95
2017-02-23T03:50:20.221Z,9.94
2017-02-23T03:50:47.375Z,9.95
2017-02-23T03:51:09.128Z,9.97
2017-02-23T03:51:45.141Z,9.94
2017-02-23T03:52:12.272Z,9.93
2017-02-23T03:52:33.978Z,9.92
2017-02-23T03:53:36.581Z,9.90
2017-02-23T03:53:58.277Z,9.89
2017-02-23T03:55:05.661Z,9.88
2017-02-23T03:55:27.369Z,9.87
2017-02-23T03:55:49.077Z,9.86
2017-02-23T03:56:15.550Z,9.90
2017-02-23T03:56:37.317Z,9.91
2017-02-23T03:57:03.799Z,9.92
2017-02-23T03:57:25.517Z,9.90
2017-02-23T03:57:52.078Z,9.86
2017-02-23T03:58:13.784Z,9.87
2017-02-23T03:58:40.268Z,9.86
2017-02-23T03:59:01.988Z,9.90
2017-02-23T03:59:28.572Z,9.91
2017-02-23T03:59:50.279Z,9.87
2017-02-23T04:00:16.756Z,9.86
2017-02-23T04:00:38.471Z,9.85
2017-02-23T04:01:00.260Z,9.84
2017-02-23T04:01:21.959Z,9.85
2017-02-23T04:01:48.435Z,9.88
2017-02-23T04:02:10.255Z,9.91
2017-02-23T04:02:36.747Z,9.94
2017-02-23T04:02:58.443Z,9.90
2017-02-23T04:03:20.139Z,9.90
2017-02-23T04:03:51.493Z,9.86
2017-02-23T04:04:13.214Z,9.86
2017-02-23T04:04:34.916Z,9.85
2017-02-23T04:05:01.388Z,9.85
2017-02-23T04:05:23.214Z,9.87
2017-02-23T04:05:49.699Z,9.89
2017-02-23T04:06:11.407Z,9.91
2017-02-23T04:06:33.226Z,9.91
2017-02-23T04:06:59.698Z,9.92
2017-02-23T04:07:21.398Z,9.88
2017-02-23T04:08:24.022Z,9.86
2017-02-23T04:08:45.727Z,9.84
2017-02-23T04:09:07.455Z,9.82
2017-02-23T04:09:34.051Z,9.80
2017-02-23T04:09:55.769Z,9.82
2017-02-23T04:11:07.820Z,9.80
2017-02-23T04:11:29.621Z,9.79
2017-02-23T04:11:51.324Z,9.79
2017-02-23T04:12:22.576Z,9.80
2017-02-23T04:12:44.369Z,9.80
2017-02-23T04:13:06.077Z,9.80
2017-02-23T04:13:32.557Z,9.82
2017-02-23T04:13:54.352Z,9.81
2017-02-23T04:14:16.050Z,9.82
2017-02-23T04:14:47.311Z,9.84
2017-02-23T04:15:09.106Z,9.85
2017-02-23T04:15:38.199Z,9.85
2017-02-23T04:15:59.894Z,9.86
2017-02-23T04:16:21.593Z,9.86
2017-02-23T04:16:43.286Z,9.87
2017-02-23T04:17:04.982Z,9.87
2017-02-23T04:17:31.491Z,9.90
2017-02-23T04:17:53.276Z,9.91
2017-02-23T04:18:19.765Z,9.91
2017-02-23T04:18:41.468Z,9.92
2017-02-23T04:19:08.055Z,9.87
2017-02-23T04:19:29.763Z,9.85
2017-02-23T04:19:51.472Z,9.85
2017-02-23T04:20:13.174Z,9.87
2017-02-23T04:20:35.003Z,9.89
2017-02-23T04:20:56.733Z,9.90
2017-02-23T04:22:04.123Z,9.87
2017-02-23T04:22:25.807Z,9.85
2017-02-23T04:23:33.196Z,9.83
2017-02-23T04:23:54.908Z,9.83
2017-02-23T04:24:26.174Z,9.82
2017-02-23T04:24:47.989Z,9.82
2017-02-23T04:25:14.534Z,9.83
2017-02-23T04:25:36.227Z,9.85
2017-02-23T04:25:58.051Z,9.85
2017-02-23T04:26:24.521Z,9.90
2017-02-23T04:26:46.215Z,9.90
2017-02-23T04:27:08.012Z,9.88
2017-02-23T04:27:39.262Z,9.90
2017-02-23T04:28:00.962Z,9.92
2017-02-23T04:28:22.760Z,9.90
2017-02-23T04:28:44.465Z,9.88
2017-02-23T04:29:06.172Z,9.87
2017-02-23T04:29:32.732Z,9.90
2017-02-23T04:29:54.438Z,9.92
2017-02-23T04:30:16.143Z,9.94
2017-02-23T04:30:37.857Z,9.96
2017-02-23T04:30:59.644Z,9.96
2017-02-23T04:31:30.891Z,9.92
2017-02-23T04:31:52.592Z,9.92
2017-02-23T04:32:23.849Z,9.94
2017-02-23T04:32:45.634Z,9.93
2017-02-23T04:33:16.889Z,9.93
2017-02-23T04:33:38.621Z,9.93
2017-02-23T04:34:00.420Z,9.94
2017-02-23T04:34:26.895Z,9.95
2017-02-23T04:34:48.618Z,9.96
2017-02-23T04:35:10.422Z,9.97
2017-02-23T04:35:36.915Z,9.95
2017-02-23T04:35:58.643Z,9.92
2017-02-23T04:36:20.465Z,9.90
2017-02-23T04:36:46.950Z,9.94
2017-02-23T04:37:08.657Z,9.91
2017-02-23T04:37:30.370Z,9.90
2017-02-23T04:38:32.968Z,9.88
2017-02-23T04:38:54.678Z,9.90
2017-02-23T04:39:16.387Z,9.90
2017-02-23T04:39:38.090Z,9.88
2017-02-23T04:39:59.894Z,9.88
2017-02-23T04:40:21.596Z,9.89
2017-02-23T04:40:43.302Z,9.90
2017-02-23T04:41:05.004Z,9.90
2017-02-23T04:41:31.581Z,9.86
2017-02-23T04:41:53.308Z,9.82
2017-02-23T04:42:19.783Z,9.80
2017-02-23T04:42:41.488Z,9.81
2017-02-23T04:43:03.289Z,9.81
2017-02-23T04:43:29.791Z,9.82
2017-02-23T04:43:51.501Z,9.83
2017-02-23T04:44:13.314Z,9.86
2017-02-23T04:44:35.033Z,9.88
2017-02-23T04:44:56.732Z,9.86
2017-02-23T04:45:23.219Z,9.84
2017-02-23T04:45:45.019Z,9.80
2017-02-23T04:46:06.721Z,9.84
2017-02-23T04:46:28.464Z,9.85
2017-02-23T04:46:50.157Z,9.84
2017-02-23T04:47:11.958Z,9.84
2017-02-23T04:47:38.459Z,9.84
2017-02-23T04:48:03.127Z,9.84
2017-02-23T04:48:24.836Z,9.82
2017-02-23T04:48:46.633Z,9.81
2017-02-23T04:49:53.913Z,9.86
2017-02-23T04:50:15.645Z,9.82
2017-02-23T04:50:42.122Z,9.83
2017-02-23T04:51:03.818Z,9.83
2017-02-23T04:51:25.527Z,9.84
2017-02-23T04:51:47.350Z,9.88
2017-02-23T04:52:09.062Z,9.87
2017-02-23T04:52:30.771Z,9.86
2017-02-23T04:52:57.340Z,9.84
2017-02-23T04:53:19.050Z,9.81
2017-02-23T04:53:40.760Z,9.84
2017-02-23T04:54:07.235Z,9.86
2017-02-23T04:54:29.030Z,9.86
2017-02-23T04:54:50.720Z,9.85
2017-02-23T04:55:12.423Z,9.85
2017-02-23T04:55:34.115Z,9.86
2017-02-23T04:55:55.910Z,9.87
2017-02-23T04:56:17.622Z,9.90
2017-02-23T04:56:39.312Z,9.88
2017-02-23T04:57:01.035Z,9.83
2017-02-23T04:57:22.845Z,9.84
2017-02-23T04:57:44.546Z,9.81
2017-02-23T04:58:06.251Z,9.83
2017-02-23T04:58:27.970Z,9.82
2017-02-23T04:58:49.780Z,9.84
2017-02-23T04:59:11.483Z,9.86
2017-02-23T04:59:37.959Z,9.86
2017-02-23T04:59:59.653Z,9.83
2017-02-23T05:00:21.459Z,9.83
2017-02-23T05:00:47.949Z,9.84
2017-02-23T05:01:09.654Z,9.84
2017-02-23T05:01:40.915Z,9.86
2017-02-23T05:02:02.678Z,9.84
2017-02-23T05:02:33.928Z,9.83
2017-02-23T05:02:58.707Z,9.82
2017-02-23T05:03:20.416Z,9.83
2017-02-23T05:03:42.118Z,9.83
2017-02-23T05:04:03.819Z,9.82
2017-02-23T05:04:30.401Z,9.82
2017-02-23T05:04:52.104Z,9.83
2017-02-23T05:05:13.806Z,9.83
2017-02-23T05:05:40.372Z,9.81
2017-02-23T05:06:02.070Z,9.82
2017-02-23T05:06:23.769Z,9.82
2017-02-23T05:08:05.609Z,9.83
2017-02-23T05:08:28.008Z,9.85
2017-02-23T05:08:49.724Z,9.83
2017-02-23T05:09:52.228Z,9.83
2017-02-23T05:10:14.025Z,9.85
2017-02-23T05:10:35.719Z,9.87
2017-02-23T05:10:57.414Z,9.85
2017-02-23T05:11:19.124Z,9.84
2017-02-23T05:11:40.908Z,9.83
2017-02-23T05:12:02.644Z,9.83
2017-02-23T05:12:24.351Z,9.83
2017-02-23T05:12:46.048Z,9.83
2017-02-23T05:13:07.756Z,9.85
2017-02-23T05:13:39.037Z,9.85
2017-02-23T05:14:00.727Z,9.85
2017-02-23T05:14:22.437Z,9.85
2017-02-23T05:14:44.147Z,9.83
2017-02-23T05:15:05.840Z,9.83
2017-02-23T05:15:27.542Z,9.82
2017-02-23T05:15:49.252Z,9.81
2017-02-23T05:16:10.952Z,9.83
2017-02-23T05:16:32.648Z,9.81
2017-02-23T05:16:59.146Z,9.81
2017-02-23T05:17:20.845Z,9.81
2017-02-23T05:17:42.560Z,9.82
2017-02-23T05:18:04.275Z,9.82
2017-02-23T05:18:25.993Z,9.82
2017-02-23T05:18:47.697Z,9.83
2017-02-23T05:19:18.950Z,9.85
2017-02-23T05:19:40.643Z,9.85
2017-02-23T05:20:11.895Z,9.85
2017-02-23T05:20:33.623Z,9.84
2017-02-23T05:21:04.867Z,9.84
2017-02-23T05:21:26.569Z,9.85
2017-02-23T05:21:57.840Z,9.84
2017-02-23T05:22:19.568Z,9.85
2017-02-23T05:22:46.064Z,9.86
2017-02-23T05:23:07.916Z,9.86
2017-02-23T05:23:29.611Z,9.86
2017-02-23T05:23:51.312Z,9.88
2017-02-23T05:24:13.011Z,9.87
2017-02-23T05:24:39.485Z,9.85
2017-02-23T05:25:01.181Z,9.83
2017-02-23T05:25:27.658Z,9.84
2017-02-23T05:25:49.482Z,9.84
2017-02-23T05:26:16.099Z,9.86
2017-02-23T05:26:42.588Z,9.87
2017-02-23T05:27:04.416Z,9.85
2017-02-23T05:27:30.909Z,9.83
2017-02-23T05:27:52.630Z,9.82
2017-02-23T05:28:19.188Z,9.85
2017-02-23T05:28:40.913Z,9.90
2017-02-23T05:29:12.162Z,9.88
2017-02-23T05:29:33.933Z,9.86
2017-02-23T05:30:09.989Z,9.85
2017-02-23T05:30:32.275Z,9.85
2017-02-23T05:30:54.110Z,9.86
2017-02-23T05:31:15.860Z,9.85
2017-02-23T05:31:42.352Z,9.84
2017-02-23T05:32:04.140Z,9.82
2017-02-23T05:32:35.402Z,9.84
2017-02-23T05:32:57.118Z,9.87
2017-02-23T05:33:28.460Z,9.86
2017-02-23T05:33:50.179Z,9.87
2017-02-23T05:34:11.926Z,9.87
2017-02-23T05:34:38.486Z,9.85
2017-02-23T05:35:00.219Z,9.85
2017-02-23T05:35:21.927Z,9.83
2017-02-23T05:35:57.949Z,9.83